Time;durP1;ratioP1;P1;durP2;ratioP2;P2;SDS_P1;SDS_P2;PMS_P1;PMS_P2;Temp;Humidity;BMP_temperature;BMP_pressure;BME280_temperature;BME280_humidity;BME280_pressure;Samples;Min_cycle;Max_cycle;Signal;HPM_P1;HPM_P2
2023/01/04 00:01:03;;;;;;;7.70;5.15;;;;;;;-142.25;100.00;58004.16;5036033;28;20053;-70
2023/01/04 00:03:30;;;;;;;5.30;4.82;;;;;;;-142.25;100.00;58004.16;5031470;28;20048;-70
2023/01/04 00:06:01;;;;;;;6.60;5.82;;;;;;;-142.25;100.00;58004.16;5035947;28;20041;-71
2023/01/04 00:08:27;;;;;;;6.60;5.68;;;;;;;-142.25;100.00;58004.16;5035260;28;20445;-70
2023/01/04 00:10:58;;;;;;;6.13;5.25;;;;;;;-142.25;100.00;58004.16;5033299;28;20036;-72
2023/01/04 00:13:24;;;;;;;10.90;5.25;;;;;;;-142.25;100.00;58004.16;5030580;28;20045;-69
2023/01/04 00:15:49;;;;;;;6.37;5.77;;;;;;;-142.25;100.00;58004.16;5030862;28;20479;-71
2023/01/04 00:18:15;;;;;;;8.68;5.20;;;;;;;-142.25;100.00;58004.16;5027080;28;20482;-70
2023/01/04 00:20:41;;;;;;;5.07;4.38;;;;;;;-142.25;100.00;58004.16;5036716;28;20045;-70
2023/01/04 00:23:07;;;;;;;7.30;5.57;;;;;;;-142.25;100.00;58004.16;5049179;28;20442;-70
2023/01/04 00:25:32;;;;;;;7.68;6.20;;;;;;;-142.25;100.00;58004.16;5036647;28;20041;-70
2023/01/04 00:27:58;;;;;;;9.75;7.60;;;;;;;-142.25;100.00;58004.16;5036478;28;20748;-70
2023/01/04 00:30:23;;;;;;;10.17;7.23;;;;;;;-142.25;100.00;58004.16;5037226;28;20037;-70
2023/01/04 00:32:49;;;;;;;9.90;6.85;;;;;;;-142.25;100.00;58004.16;5035923;28;20107;-71
2023/01/04 00:35:15;;;;;;;10.57;6.45;;;;;;;-142.25;100.00;58004.16;5034048;28;20049;-70
2023/01/04 00:37:41;;;;;;;9.63;6.93;;;;;;;-142.25;100.00;58004.16;5032629;28;20491;-70
2023/01/04 00:40:07;;;;;;;9.90;6.63;;;;;;;-142.25;100.00;58004.16;5030847;28;20041;-70
2023/01/04 00:42:32;;;;;;;8.20;6.53;;;;;;;-142.25;100.00;58004.16;5032939;28;20147;-70
2023/01/04 00:44:58;;;;;;;8.17;6.37;;;;;;;-142.25;100.00;58004.16;5032424;28;20041;-72
2023/01/04 00:47:23;;;;;;;8.97;6.37;;;;;;;-142.25;100.00;58004.16;5034803;28;20041;-69
2023/01/04 00:49:49;;;;;;;7.73;6.37;;;;;;;-142.25;100.00;58004.16;5036000;28;20148;-69
2023/01/04 00:52:15;;;;;;;9.10;7.23;;;;;;;-142.25;100.00;58004.16;5036437;28;20081;-70
2023/01/04 00:54:40;;;;;;;9.13;6.80;;;;;;;-142.25;100.00;58004.16;5040235;28;20045;-69
2023/01/04 00:57:07;;;;;;;8.43;6.63;;;;;;;-142.25;100.00;58004.16;5029501;28;20055;-69
2023/01/04 00:59:33;;;;;;;8.73;6.57;;;;;;;-142.25;100.00;58004.16;5035220;28;20033;-69
2023/01/04 01:01:59;;;;;;;8.93;7.03;;;;;;;-142.25;100.00;58004.16;5031550;28;20044;-69
2023/01/04 01:04:25;;;;;;;8.27;6.57;;;;;;;-142.25;100.00;58004.16;5036029;28;20057;-69
2023/01/04 01:06:51;;;;;;;7.97;6.97;;;;;;;-142.25;100.00;58004.16;5037581;28;20048;-69
2023/01/04 01:09:18;;;;;;;10.67;8.53;;;;;;;-142.25;100.00;58004.16;5037526;28;20095;-69
2023/01/04 01:11:43;;;;;;;7.60;6.37;;;;;;;-142.25;100.00;58004.16;5037204;28;20125;-70
2023/01/04 01:14:15;;;;;;;9.77;6.60;;;;;;;-142.25;100.00;58004.16;5035408;28;20134;-70
2023/01/04 01:16:41;;;;;;;7.47;6.20;;;;;;;-142.25;100.00;58004.16;5029836;28;20049;-69
2023/01/04 01:19:07;;;;;;;8.43;6.70;;;;;;;-142.25;100.00;58004.16;5036009;28;20200;-70
2023/01/04 01:21:32;;;;;;;10.53;6.50;;;;;;;-142.25;100.00;58004.16;5034104;28;20045;-69
2023/01/04 01:23:58;;;;;;;8.80;6.40;;;;;;;-142.25;100.00;58004.16;5039151;28;20041;-69
2023/01/04 01:26:24;;;;;;;8.77;6.27;;;;;;;-142.25;100.00;58004.16;5036193;28;20243;-70
2023/01/04 01:28:51;;;;;;;10.83;6.67;;;;;;;-142.25;100.00;58004.16;5055780;28;20120;-69
2023/01/04 01:31:20;;;;;;;10.97;7.93;;;;;;;-142.25;100.00;58004.16;5037267;28;20084;-70
2023/01/04 01:33:48;;;;;;;10.30;7.10;;;;;;;-142.25;100.00;58004.16;5035070;28;20060;-71
2023/01/04 01:36:15;;;;;;;9.60;6.10;;;;;;;-142.25;100.00;58004.16;5033485;28;20091;-71
2023/01/04 01:38:41;;;;;;;6.13;5.53;;;;;;;-142.25;100.00;58004.16;5033058;28;20049;-70
2023/01/04 01:41:14;;;;;;;7.60;6.00;;;;;;;-142.25;100.00;58004.16;5032065;28;20045;-69
2023/01/04 01:43:56;;;;;;;8.33;5.27;;;;;;;-142.25;100.00;58004.16;5041331;28;20451;-69
2023/01/04 01:46:33;;;;;;;9.10;5.97;;;;;;;-142.25;100.00;58004.16;5039767;28;20052;-70
2023/01/04 01:49:17;;;;;;;9.17;5.70;;;;;;;-142.25;100.00;58004.16;5036932;28;20136;-70
2023/01/04 01:51:43;;;;;;;8.67;6.73;;;;;;;-142.25;100.00;58004.16;5036252;28;20037;-69
2023/01/04 01:54:25;;;;;;;6.10;5.50;;;;;;;-142.25;100.00;58004.16;5032708;28;20052;-69
2023/01/04 01:56:53;;;;;;;8.40;6.23;;;;;;;-142.25;100.00;58004.16;5035139;28;20442;-70
2023/01/04 01:59:20;;;;;;;7.93;5.53;;;;;;;-142.25;100.00;58004.16;5030127;28;20065;-70
2023/01/04 02:01:45;;;;;;;15.70;11.50;;;;;;;-142.25;100.00;58004.16;5027291;28;20114;-70
2023/01/04 02:04:14;;;;;;;17.63;12.03;;;;;;;-142.25;100.00;58004.16;5029359;28;20041;-70
2023/01/04 02:06:45;;;;;;;16.90;12.67;;;;;;;-142.25;100.00;58004.16;5032830;28;20050;-71
2023/01/04 02:09:11;;;;;;;17.10;11.43;;;;;;;-142.25;100.00;58004.16;5036978;28;20049;-70
2023/01/04 02:11:37;;;;;;;11.17;8.00;;;;;;;-142.25;100.00;58004.16;5034283;28;20076;-70
2023/01/04 02:16:59;;;;;;;8.33;6.07;;;;;;;-142.25;100.00;58004.16;5038409;28;20092;-70
2023/01/04 02:19:58;;;;;;;7.53;5.23;;;;;;;-142.25;100.00;58004.16;5038019;28;20667;-70
2023/01/04 02:22:55;;;;;;;9.53;6.27;;;;;;;-142.25;100.00;58004.16;5036599;28;20068;-71
2023/01/04 02:25:36;;;;;;;9.70;5.73;;;;;;;-142.25;100.00;58004.16;5039669;28;20041;-69
2023/01/04 02:28:21;;;;;;;7.20;6.03;;;;;;;-142.25;100.00;58004.16;5037372;28;20053;-69
2023/01/04 02:31:25;;;;;;;8.73;6.37;;;;;;;-142.25;100.00;58004.16;5038929;28;20053;-69
2023/01/04 02:33:55;;;;;;;8.73;6.10;;;;;;;-142.25;100.00;58004.16;5036223;28;20041;-71
2023/01/04 02:36:39;;;;;;;11.20;7.73;;;;;;;-142.25;100.00;58004.16;5038264;28;20038;-70
2023/01/04 02:39:28;;;;;;;8.30;6.43;;;;;;;-142.25;100.00;58004.16;5006017;28;20047;-70
2023/01/04 02:42:18;;;;;;;8.77;5.57;;;;;;;-142.25;100.00;58004.16;4964362;28;20059;-71
2023/01/04 02:44:56;;;;;;;9.33;6.20;;;;;;;-142.25;100.00;58004.16;4967050;28;20043;-70
2023/01/04 02:50:29;;;;;;;9.37;6.50;;;;;;;-142.25;100.00;58004.16;4965441;28;20059;-70
2023/01/04 02:53:08;;;;;;;8.63;5.40;;;;;;;-142.25;100.00;58004.16;4962754;28;20588;-69
2023/01/04 02:55:45;;;;;;;7.97;5.73;;;;;;;-142.25;100.00;58004.16;4960786;28;20057;-70
2023/01/04 02:58:31;;;;;;;9.10;5.83;;;;;;;-142.25;100.00;58004.16;4965765;28;20049;-70
2023/01/04 03:07:25;;;;;;;8.10;4.90;;;;;;;-142.25;100.00;58004.16;4964977;28;20061;-70
2023/01/04 03:09:59;;;;;;;9.60;5.70;;;;;;;-142.25;100.00;58004.16;4965501;28;20057;-69
2023/01/04 03:12:31;;;;;;;10.07;5.30;;;;;;;-142.25;100.00;58004.16;4962084;28;20054;-70
2023/01/04 03:15:11;;;;;;;10.33;6.10;;;;;;;-142.25;100.00;58004.16;4959223;28;20055;-69
2023/01/04 03:17:46;;;;;;;9.50;5.50;;;;;;;-142.25;100.00;58004.16;4962724;28;20323;-70
2023/01/04 03:20:15;;;;;;;9.07;5.78;;;;;;;-142.25;100.00;58004.16;5036500;28;20087;-69
2023/01/04 03:37:18;;;;;;;9.37;5.30;;;;;;;-142.25;100.00;58004.16;5007051;28;20050;-71
2023/01/04 03:49:11;;;;;;;7.67;5.20;;;;;;;-142.25;100.00;58004.16;5008096;28;20041;-75
2023/01/04 03:51:38;;;;;;;9.67;6.03;;;;;;;-142.25;100.00;58004.16;5011039;28;20066;-71
2023/01/04 03:54:10;;;;;;;6.40;5.20;;;;;;;-142.25;100.00;58004.16;5006308;28;20042;-72
2023/01/04 03:56:40;;;;;;;8.00;5.80;;;;;;;-142.25;100.00;58004.16;5007961;28;20045;-72
2023/01/04 03:59:07;;;;;;;9.43;5.97;;;;;;;-142.25;100.00;58004.16;5006637;28;20049;-71
2023/01/04 04:01:35;;;;;;;8.57;5.10;;;;;;;-142.25;100.00;58004.16;5008207;28;20148;-72
2023/01/04 04:09:29;;;;;;;8.87;5.80;;;;;;;-142.25;100.00;58004.16;5006752;28;20463;-72
2023/01/04 04:11:55;;;;;;;8.83;5.60;;;;;;;-142.25;100.00;58004.16;5032254;28;20057;-72
2023/01/04 04:14:21;;;;;;;9.60;5.13;;;;;;;-142.25;100.00;58004.16;5034454;28;20041;-72
2023/01/04 04:16:46;;;;;;;8.63;5.40;;;;;;;-142.25;100.00;58004.16;5035830;28;20172;-72
2023/01/04 04:19:12;;;;;;;7.33;4.87;;;;;;;-142.25;100.00;58004.16;5037717;28;20044;-72
2023/01/04 04:21:37;;;;;;;7.17;6.30;;;;;;;-142.25;100.00;58004.16;5035874;28;20486;-65
2023/01/04 04:24:04;;;;;;;8.27;5.53;;;;;;;-142.25;100.00;58004.16;5035096;28;20136;-68
2023/01/04 04:26:29;;;;;;;6.00;5.23;;;;;;;-142.25;100.00;58004.16;5032754;28;20037;-71
2023/01/04 04:28:55;;;;;;;8.27;6.10;;;;;;;-142.25;100.00;58004.16;5033109;28;20068;-66
2023/01/04 04:31:21;;;;;;;7.90;4.90;;;;;;;-142.25;100.00;58004.16;5041662;28;20056;-72
2023/01/04 04:33:46;;;;;;;10.50;5.57;;;;;;;-142.25;100.00;58004.16;5035247;28;20041;-72
2023/01/04 04:36:12;;;;;;;8.33;5.10;;;;;;;-142.25;100.00;58004.16;5037762;28;20115;-72
2023/01/04 04:38:38;;;;;;;8.93;6.13;;;;;;;-142.25;100.00;58004.16;5036779;28;20364;-72
2023/01/04 04:43:58;;;;;;;8.40;5.60;;;;;;;-142.25;100.00;58004.16;5037661;28;20920;-72
2023/01/04 04:46:24;;;;;;;8.30;6.13;;;;;;;-142.25;100.00;58004.16;5035079;28;20107;-72
2023/01/04 04:48:50;;;;;;;10.33;6.47;;;;;;;-142.25;100.00;58004.16;5034402;28;20941;-72
2023/01/04 04:51:16;;;;;;;8.23;5.20;;;;;;;-142.25;100.00;58004.16;5036440;28;20076;-72
2023/01/04 04:53:42;;;;;;;10.13;6.53;;;;;;;-142.25;100.00;58004.16;5033880;28;20041;-72
2023/01/04 04:56:08;;;;;;;7.70;4.87;;;;;;;-142.25;100.00;58004.16;5035226;28;20479;-72
2023/01/04 04:58:35;;;;;;;10.67;5.57;;;;;;;-142.25;100.00;58004.16;5030829;28;20038;-71
2023/01/04 05:01:00;;;;;;;10.13;4.50;;;;;;;-142.25;100.00;58004.16;5032873;28;20032;-71
2023/01/04 05:03:26;;;;;;;7.70;4.83;;;;;;;-142.25;100.00;58004.16;5033314;28;20071;-71
2023/01/04 05:05:52;;;;;;;8.63;5.70;;;;;;;-142.25;100.00;58004.16;5032587;28;20041;-72
2023/01/04 05:08:18;;;;;;;11.57;5.33;;;;;;;-142.25;100.00;58004.16;5031500;28;20045;-72
2023/01/04 05:10:44;;;;;;;9.63;6.47;;;;;;;-142.25;100.00;58004.16;5036291;28;20029;-72
2023/01/04 05:13:12;;;;;;;7.97;5.40;;;;;;;-142.25;100.00;58004.16;5037016;28;20774;-72
2023/01/04 05:15:40;;;;;;;12.23;6.63;;;;;;;-142.25;100.00;58004.16;5037219;28;20136;-73
2023/01/04 05:18:07;;;;;;;9.10;5.33;;;;;;;-142.25;100.00;58004.16;5030926;28;20125;-72
2023/01/04 05:20:33;;;;;;;9.17;5.30;;;;;;;-142.25;100.00;58004.16;5032513;28;20041;-72
2023/01/04 05:22:59;;;;;;;7.80;4.80;;;;;;;-142.25;100.00;58004.16;5037678;28;20420;-74
2023/01/04 05:25:25;;;;;;;7.40;5.60;;;;;;;-142.25;100.00;58004.16;5041621;28;20053;-72
2023/01/04 05:27:51;;;;;;;8.87;5.93;;;;;;;-142.25;100.00;58004.16;5038495;28;20540;-72
2023/01/04 05:33:02;;;;;;;9.00;5.10;;;;;;;-142.25;100.00;58004.16;5035089;28;20076;-73
2023/01/04 05:35:28;;;;;;;8.53;5.30;;;;;;;-142.25;100.00;58004.16;5033775;28;20231;-71
2023/01/04 05:37:54;;;;;;;9.10;5.50;;;;;;;-142.25;100.00;58004.16;5032787;28;20106;-73
2023/01/04 05:40:20;;;;;;;9.33;4.93;;;;;;;-142.25;100.00;58004.16;5030922;28;20061;-73
2023/01/04 05:42:47;;;;;;;9.67;5.10;;;;;;;-142.25;100.00;58004.16;5030736;28;20190;-72
2023/01/04 05:45:13;;;;;;;6.00;4.63;;;;;;;-142.25;100.00;58004.16;5035361;28;20555;-72
2023/01/04 05:47:39;;;;;;;9.13;5.00;;;;;;;-142.25;100.00;58004.16;5034704;28;20037;-71
2023/01/04 05:50:06;;;;;;;8.97;5.03;;;;;;;-142.25;100.00;58004.16;5039270;28;20029;-72
2023/01/04 05:52:32;;;;;;;7.93;5.53;;;;;;;-142.25;100.00;58004.16;5031515;28;20050;-72
2023/01/04 05:54:58;;;;;;;6.90;5.20;;;;;;;-142.25;100.00;58004.16;5032861;28;20047;-72
2023/01/04 05:57:23;;;;;;;7.60;4.67;;;;;;;-142.25;100.00;58004.16;5034148;28;20049;-73
2023/01/04 05:59:49;;;;;;;8.77;5.50;;;;;;;-142.25;100.00;58004.16;5034013;28;20040;-72
2023/01/04 06:02:18;;;;;;;7.87;4.53;;;;;;;-142.25;100.00;58004.16;5034137;28;20077;-72
2023/01/04 06:04:44;;;;;;;8.07;5.00;;;;;;;-142.25;100.00;58004.16;5039200;28;20041;-73
2023/01/04 06:07:09;;;;;;;12.40;5.83;;;;;;;-142.25;100.00;58004.16;5033259;28;20029;-72
2023/01/04 06:09:35;;;;;;;14.10;8.53;;;;;;;-142.25;100.00;58004.16;5035292;28;20571;-72
2023/01/04 06:12:01;;;;;;;13.60;9.03;;;;;;;-142.25;100.00;58004.16;5032038;28;20723;-72
2023/01/04 06:14:26;;;;;;;24.23;9.33;;;;;;;-142.25;100.00;58004.16;5035164;28;20076;-72
2023/01/04 06:16:52;;;;;;;14.53;8.20;;;;;;;-142.25;100.00;58004.16;5033946;28;20566;-73
2023/01/04 06:19:18;;;;;;;11.37;6.90;;;;;;;-142.25;100.00;58004.16;5033256;28;20396;-72
2023/01/04 06:21:44;;;;;;;12.20;7.30;;;;;;;-142.25;100.00;58004.16;5034083;28;20100;-72
2023/01/04 06:24:10;;;;;;;9.07;6.90;;;;;;;-142.25;100.00;58004.16;5032996;28;20064;-73
2023/01/04 06:26:36;;;;;;;14.33;6.40;;;;;;;-142.25;100.00;58004.16;5034068;28;20041;-72
2023/01/04 06:29:02;;;;;;;9.00;7.87;;;;;;;-142.25;100.00;58004.16;5034077;28;20048;-72
2023/01/04 06:31:28;;;;;;;11.80;6.63;;;;;;;-142.25;100.00;58004.16;5035219;28;20040;-73
2023/01/04 06:33:54;;;;;;;8.57;6.17;;;;;;;-142.25;100.00;58004.16;5034808;28;20046;-74
2023/01/04 06:36:20;;;;;;;10.93;6.70;;;;;;;-142.25;100.00;58004.16;5033852;28;20029;-72
2023/01/04 06:38:46;;;;;;;10.23;6.87;;;;;;;-142.25;100.00;58004.16;5030112;28;20063;-69
2023/01/04 06:41:12;;;;;;;8.63;5.60;;;;;;;-142.25;100.00;58004.16;5032394;28;20133;-69
2023/01/04 06:43:37;;;;;;;10.90;6.03;;;;;;;-142.25;100.00;58004.16;5037644;28;20499;-67
2023/01/04 06:46:03;;;;;;;9.83;6.47;;;;;;;-142.25;100.00;58004.16;5032359;28;20041;-70
2023/01/04 06:48:29;;;;;;;9.03;6.23;;;;;;;-142.25;100.00;58004.16;5029986;28;20049;-69
2023/01/04 06:50:54;;;;;;;11.40;6.60;;;;;;;-142.25;100.00;58004.16;5031424;28;20073;-69
2023/01/04 06:53:20;;;;;;;11.57;6.60;;;;;;;-142.25;100.00;58004.16;5031437;28;20053;-69
2023/01/04 06:55:46;;;;;;;10.00;6.87;;;;;;;-142.25;100.00;58004.16;5032736;28;20033;-69
2023/01/04 06:58:11;;;;;;;8.90;6.70;;;;;;;-142.25;100.00;58004.16;5035058;28;20488;-71
2023/01/04 07:00:37;;;;;;;11.47;7.17;;;;;;;-142.25;100.00;58004.16;5035367;28;20583;-69
2023/01/04 07:03:03;;;;;;;9.33;6.80;;;;;;;-142.25;100.00;58004.16;5035209;28;20410;-69
2023/01/04 07:05:29;;;;;;;10.20;6.23;;;;;;;-142.25;100.00;58004.16;5031057;28;20099;-73
2023/01/04 07:07:54;;;;;;;13.77;7.90;;;;;;;-142.25;100.00;58004.16;5034452;28;20382;-70
2023/01/04 07:10:20;;;;;;;11.77;8.83;;;;;;;-142.25;100.00;58004.16;5035994;28;20045;-71
2023/01/04 07:12:45;;;;;;;12.57;8.00;;;;;;;-142.25;100.00;58004.16;5034831;28;20045;-70
2023/01/04 07:15:11;;;;;;;16.47;8.33;;;;;;;-142.25;100.00;58004.16;5035186;28;20136;-70
2023/01/04 07:17:37;;;;;;;14.07;7.63;;;;;;;-142.25;100.00;58004.16;5030299;28;20553;-70
2023/01/04 07:20:03;;;;;;;14.17;8.70;;;;;;;-142.25;100.00;58004.16;5035699;28;20068;-70
2023/01/04 07:22:29;;;;;;;12.57;8.07;;;;;;;-142.25;100.00;58004.16;5036565;28;20084;-69
2023/01/04 07:24:54;;;;;;;15.73;8.30;;;;;;;-142.25;100.00;58004.16;5038633;28;20128;-69
2023/01/04 07:27:20;;;;;;;13.83;8.00;;;;;;;-142.25;100.00;58004.16;5036711;28;20048;-70
2023/01/04 07:29:46;;;;;;;14.97;8.73;;;;;;;-142.25;100.00;58004.16;5035314;28;20049;-72
2023/01/04 07:32:12;;;;;;;20.70;11.60;;;;;;;-142.25;100.00;58004.16;5036239;28;20045;-69
2023/01/04 07:34:38;;;;;;;14.83;9.43;;;;;;;-142.25;100.00;58004.16;5037485;28;20105;-69
2023/01/04 07:37:06;;;;;;;12.57;7.07;;;;;;;-142.25;100.00;58004.16;5037340;28;20041;-68
2023/01/04 07:39:31;;;;;;;12.70;7.63;;;;;;;-142.25;100.00;58004.16;5038652;28;20025;-69
2023/01/04 07:41:57;;;;;;;11.83;8.40;;;;;;;-142.25;100.00;58004.16;5037567;28;20044;-69
2023/01/04 07:44:27;;;;;;;10.60;7.27;;;;;;;-142.25;100.00;58004.16;5043610;28;20037;-70
2023/01/04 07:46:53;;;;;;;11.73;7.10;;;;;;;-142.25;100.00;58004.16;5033879;28;20123;-69
2023/01/04 07:49:19;;;;;;;10.33;7.97;;;;;;;-142.25;100.00;58004.16;5031565;28;20050;-70
2023/01/04 07:51:46;;;;;;;14.00;9.47;;;;;;;-142.25;100.00;58004.16;5033861;28;20045;-68
2023/01/04 07:54:13;;;;;;;10.60;7.27;;;;;;;-142.25;100.00;58004.16;5035520;28;20033;-67
2023/01/04 07:56:39;;;;;;;11.90;7.47;;;;;;;-142.25;100.00;58004.16;5030746;28;20142;-68
2023/01/04 07:59:06;;;;;;;10.07;5.73;;;;;;;-142.25;100.00;58004.16;5031234;28;20049;-68
2023/01/04 08:01:34;;;;;;;12.13;6.23;;;;;;;-142.25;100.00;58004.16;5029911;28;20092;-68
2023/01/04 08:04:00;;;;;;;7.90;5.53;;;;;;;-142.25;100.00;58004.16;5030296;28;20080;-67
2023/01/04 08:06:26;;;;;;;9.03;7.07;;;;;;;-142.25;100.00;58004.16;5037499;28;20104;-69
2023/01/04 08:08:51;;;;;;;9.53;7.07;;;;;;;-142.25;100.00;58004.16;5036861;28;20049;-68
2023/01/04 08:11:21;;;;;;;8.50;6.60;;;;;;;-142.25;100.00;58004.16;5034934;28;20040;-68
2023/01/04 08:13:47;;;;;;;11.90;6.97;;;;;;;-142.25;100.00;58004.16;5037418;28;20045;-69
2023/01/04 08:16:26;;;;;;;6.57;4.97;;;;;;;-142.25;100.00;58004.16;5033078;28;20060;-69
2023/01/04 08:18:57;;;;;;;8.77;5.73;;;;;;;-142.25;100.00;58004.16;5030181;28;20276;-69
2023/01/04 08:21:24;;;;;;;7.90;5.03;;;;;;;-142.25;100.00;58004.16;5018895;28;20064;-67
2023/01/04 08:23:51;;;;;;;7.67;5.13;;;;;;;-142.25;100.00;58004.16;5038752;28;20053;-67
2023/01/04 08:26:17;;;;;;;6.93;4.93;;;;;;;-142.25;100.00;58004.16;5033545;28;20439;-68
2023/01/04 08:28:43;;;;;;;11.07;5.47;;;;;;;-142.25;100.00;58004.16;5030569;28;20480;-67
2023/01/04 08:31:15;;;;;;;8.80;5.07;;;;;;;-142.25;100.00;58004.16;5036223;28;20056;-69
2023/01/04 08:33:42;;;;;;;12.37;5.83;;;;;;;-142.25;100.00;58004.16;5034715;28;20044;-68
2023/01/04 08:36:11;;;;;;;10.37;6.47;;;;;;;-142.25;100.00;58004.16;5030047;28;20155;-69
2023/01/04 08:38:37;;;;;;;6.57;5.10;;;;;;;-142.25;100.00;58004.16;5031921;28;20159;-68
2023/01/04 08:41:04;;;;;;;9.20;4.97;;;;;;;-142.25;100.00;58004.16;5046693;28;20041;-69
2023/01/04 08:43:30;;;;;;;8.23;5.57;;;;;;;-142.25;100.00;58004.16;5036856;28;20045;-66
2023/01/04 08:45:56;;;;;;;8.73;5.57;;;;;;;-142.25;100.00;58004.16;5037320;28;20098;-68
2023/01/04 08:48:22;;;;;;;9.10;5.17;;;;;;;-142.25;100.00;58004.16;5032805;28;20048;-67
2023/01/04 08:50:47;;;;;;;7.57;5.30;;;;;;;-142.25;100.00;58004.16;5031956;28;20051;-67
2023/01/04 08:53:13;;;;;;;7.87;4.83;;;;;;;-142.25;100.00;58004.16;5033048;28;20527;-67
2023/01/04 08:55:38;;;;;;;9.87;5.07;;;;;;;-142.25;100.00;58004.16;5036713;28;20041;-68
2023/01/04 08:58:06;;;;;;;9.37;5.30;;;;;;;-142.25;100.00;58004.16;5035718;28;20036;-67
2023/01/04 09:00:32;;;;;;;7.97;5.10;;;;;;;-142.25;100.00;58004.16;5032433;28;20118;-68
2023/01/04 09:02:57;;;;;;;7.23;5.40;;;;;;;-142.25;100.00;58004.16;5030238;28;20848;-67
2023/01/04 09:05:24;;;;;;;7.80;5.20;;;;;;;-142.25;100.00;58004.16;5036237;28;20220;-67
2023/01/04 09:07:50;;;;;;;7.03;5.53;;;;;;;-142.25;100.00;58004.16;5035069;28;20083;-67
2023/01/04 09:10:16;;;;;;;5.67;4.40;;;;;;;-142.25;100.00;58004.16;5034187;28;20076;-67
2023/01/04 09:12:44;;;;;;;7.30;4.37;;;;;;;-142.25;100.00;58004.16;5034718;28;20529;-67
2023/01/04 09:15:10;;;;;;;8.37;5.13;;;;;;;-142.25;100.00;58004.16;5031131;28;20534;-66
2023/01/04 09:17:35;;;;;;;5.73;5.10;;;;;;;-142.25;100.00;58004.16;5039666;28;20045;-68
2023/01/04 09:20:01;;;;;;;6.77;4.93;;;;;;;-142.25;100.00;58004.16;5031804;28;20341;-67
2023/01/04 09:22:29;;;;;;;7.53;4.50;;;;;;;-142.25;100.00;58004.16;5032927;28;20049;-67
2023/01/04 09:24:55;;;;;;;5.43;4.17;;;;;;;-142.25;100.00;58004.16;5030085;28;20038;-67
2023/01/04 09:27:20;;;;;;;5.73;4.07;;;;;;;-142.25;100.00;58004.16;5031208;28;20601;-70
2023/01/04 09:29:46;;;;;;;5.47;4.27;;;;;;;-142.25;100.00;58004.16;5034250;28;20176;-67
2023/01/04 09:32:12;;;;;;;6.33;5.50;;;;;;;-142.25;100.00;58004.16;5032196;28;20048;-67
2023/01/04 09:34:38;;;;;;;9.17;5.93;;;;;;;-142.25;100.00;58004.16;5036520;28;20613;-66
2023/01/04 09:37:04;;;;;;;6.27;4.73;;;;;;;-142.25;100.00;58004.16;5040651;28;20045;-67
2023/01/04 09:39:29;;;;;;;5.93;4.87;;;;;;;-142.25;100.00;58004.16;5040997;28;20118;-68
2023/01/04 09:42:02;;;;;;;7.57;6.17;;;;;;;-142.25;100.00;58004.16;5034407;28;20049;-66
2023/01/04 09:44:46;;;;;;;6.47;4.78;;;;;;;-142.25;100.00;58004.16;5035337;28;20579;-67
2023/01/04 09:47:35;;;;;;;7.97;6.00;;;;;;;-142.25;100.00;58004.16;5036647;28;20044;-65
2023/01/04 09:50:12;;;;;;;8.50;5.85;;;;;;;-142.25;100.00;58004.16;5034367;28;20139;-65
2023/01/04 09:52:55;;;;;;;6.70;4.85;;;;;;;-142.25;100.00;58004.16;5035028;28;20069;-66
2023/01/04 09:55:29;;;;;;;7.65;4.95;;;;;;;-142.25;100.00;58004.16;5031043;28;20113;-67
2023/01/04 09:58:00;;;;;;;7.97;5.25;;;;;;;-142.25;100.00;58004.16;5036947;28;20052;-66
2023/01/04 10:00:31;;;;;;;5.97;5.10;;;;;;;-142.25;100.00;58004.16;5033629;28;20040;-69
2023/01/04 10:03:05;;;;;;;8.13;4.90;;;;;;;-142.25;100.00;58004.16;5030468;28;20489;-68
2023/01/04 10:05:33;;;;;;;6.05;5.10;;;;;;;-142.25;100.00;58004.16;5036906;28;20094;-68
2023/01/04 10:08:00;;;;;;;5.60;4.82;;;;;;;-142.25;100.00;58004.16;5035296;28;20038;-67
2023/01/04 10:10:47;;;;;;;5.35;4.55;;;;;;;-142.25;100.00;58004.16;5033356;28;20060;-67
2023/01/04 10:13:18;;;;;;;4.50;3.70;;;;;;;-142.25;100.00;58004.16;5031567;28;20178;-67
2023/01/04 10:16:03;;;;;;;4.43;3.50;;;;;;;-142.25;100.00;58004.16;5030324;28;20560;-67
2023/01/04 10:18:28;;;;;;;3.97;3.55;;;;;;;-142.25;100.00;58004.16;5031659;28;20049;-67
2023/01/04 10:21:10;;;;;;;3.55;3.25;;;;;;;-142.25;100.00;58004.16;5031822;28;20145;-68
2023/01/04 10:24:40;;;;;;;4.57;3.67;;;;;;;-142.25;100.00;58004.16;5029683;28;20490;-69
2023/01/04 10:27:22;;;;;;;4.57;3.63;;;;;;;-142.25;100.00;58004.16;4990224;28;20052;-67
2023/01/04 10:30:37;;;;;;;4.20;3.53;;;;;;;-142.25;100.00;58004.16;5039440;28;20144;-68
2023/01/04 10:33:14;;;;;;;4.47;2.97;;;;;;;-142.25;100.00;58004.16;5016567;28;20589;-69
2023/01/04 10:35:43;;;;;;;3.13;2.83;;;;;;;-142.25;100.00;58004.16;5037533;28;20045;-68
2023/01/04 10:38:24;;;;;;;4.70;2.95;;;;;;;-142.25;100.00;58004.16;5033562;28;20187;-67
2023/01/04 10:40:50;;;;;;;2.72;2.30;;;;;;;-142.25;100.00;58004.16;5039005;28;20041;-67
2023/01/04 10:43:30;;;;;;;3.22;1.80;;;;;;;-142.25;100.00;58004.16;5040820;28;20122;-68
2023/01/04 10:46:03;;;;;;;2.28;2.08;;;;;;;-142.25;100.00;58004.16;5040597;28;20052;-67
2023/01/04 10:48:31;;;;;;;2.10;2.00;;;;;;;-142.25;100.00;58004.16;5043048;28;20068;-67
2023/01/04 10:50:59;;;;;;;3.25;2.13;;;;;;;-142.25;100.00;58004.16;5040726;28;20048;-68
2023/01/04 10:53:46;;;;;;;2.78;2.58;;;;;;;-142.25;100.00;58004.16;5039205;28;20032;-68
2023/01/04 10:56:30;;;;;;;3.10;2.80;;;;;;;-142.25;100.00;58004.16;5036056;28;20370;-68
2023/01/04 10:58:59;;;;;;;3.42;2.80;;;;;;;-142.25;100.00;58004.16;5043346;28;20044;-67
2023/01/04 11:01:52;;;;;;;3.60;2.97;;;;;;;-142.25;100.00;58004.16;5036307;28;20510;-67
2023/01/04 11:04:24;;;;;;;3.05;2.67;;;;;;;-142.25;100.00;58004.16;5030778;28;20111;-69
2023/01/04 11:07:04;;;;;;;2.60;2.40;;;;;;;-142.25;100.00;58004.16;5040059;28;20034;-67
2023/01/04 11:09:53;;;;;;;5.03;3.42;;;;;;;-142.25;100.00;58004.16;5039738;28;20049;-67
2023/01/04 11:12:22;;;;;;;4.22;2.88;;;;;;;-142.25;100.00;58004.16;5041091;28;20048;-70
2023/01/04 11:14:50;;;;;;;3.45;3.15;;;;;;;-142.25;100.00;58004.16;5038597;28;20128;-69
2023/01/04 11:17:16;;;;;;;2.90;2.70;;;;;;;-142.25;100.00;58004.16;5036832;28;20443;-70
2023/01/04 11:19:42;;;;;;;2.45;2.25;;;;;;;-142.25;100.00;58004.16;5038260;28;20131;-69
2023/01/04 11:22:23;;;;;;;2.83;2.60;;;;;;;-142.25;100.00;58004.16;5039569;28;20411;-68
2023/01/04 11:24:58;;;;;;;2.33;2.13;;;;;;;-142.25;100.00;58004.16;5036767;28;20080;-70
2023/01/04 11:27:26;;;;;;;;;;;;;;;-142.25;100.00;58004.16;5034290;28;20124;-69
2023/01/04 11:30:11;;;;;;;3.15;2.58;;;;;;;-142.25;100.00;58004.16;5033743;28;20548;-69
2023/01/04 11:32:59;;;;;;;2.47;2.28;;;;;;;-142.25;100.00;58004.16;5038958;28;20051;-68
2023/01/04 11:35:43;;;;;;;2.67;2.47;;;;;;;-142.25;100.00;58004.16;5037264;28;20040;-68
2023/01/04 11:38:15;;;;;;;4.10;2.88;;;;;;;-142.25;100.00;58004.16;5036270;28;20048;-68
2023/01/04 11:40:41;;;;;;;3.22;2.42;;;;;;;-142.25;100.00;58004.16;5036677;28;20044;-69
2023/01/04 11:43:19;;;;;;;2.97;2.65;;;;;;;-142.25;100.00;58004.16;5038860;28;20864;-67
2023/01/04 11:46:18;;;;;;;4.00;3.50;;;;;;;-142.25;100.00;58004.16;5035440;28;20550;-68
2023/01/04 11:48:45;;;;;;;6.78;3.78;;;;;;;-142.25;100.00;58004.16;5033449;28;20053;-69
2023/01/04 11:51:24;;;;;;;3.55;3.03;;;;;;;-142.25;100.00;58004.16;5036462;28;20045;-70
2023/01/04 11:53:57;;;;;;;5.45;3.45;;;;;;;-142.25;100.00;58004.16;5031652;28;20127;-70
2023/01/04 11:56:25;;;;;;;4.60;4.20;;;;;;;-142.25;100.00;58004.16;5036349;28;20768;-70
2023/01/04 11:59:16;;;;;;;3.42;3.13;;;;;;;-142.25;100.00;58004.16;5032505;28;20128;-68
2023/01/04 12:01:48;;;;;;;4.85;4.45;;;;;;;-142.25;100.00;58004.16;5037008;28;20044;-68
2023/01/04 12:04:23;;;;;;;3.63;3.33;;;;;;;-142.25;100.00;58004.16;5037398;28;20044;-68
2023/01/04 12:07:30;;;;;;;4.38;3.38;;;;;;;-142.25;100.00;58004.16;5035131;28;20171;-68